CheckWX is a tool to help pilots better visualize weather data.  It is not intended as a substitute for an official pre-flight weather briefing.

00:11:14 UTC

SCIE TAF
Carriel Sur Airport
Concepcion, Chile
TAF SCIE 222200Z 2300/2324 22015KT CAVOK TX19/2318Z TN07/2311Z BECMG 2300/2302 21006KT TEMPO 2306/2312 15004KT BECMG 2315/2317 22012KT

Oct-23@
00:00 UTC

Oct-23 @ 00:00 UTC

Oct-24@
00:00 UTC

Oct-24 @ 00:00 UTC

TAF SCIE 222200Z 2300/2324 22015KT CAVOK TX19/2318Z TN07/2311Z
Wind
  • 220° at 15 KTS
Cloud Levels
  • No significant clouds

Oct-23@
00:00 UTC

Oct-23 @ 00:00 UTC

Oct-23@
15:00 UTC

Oct-23 @ 15:00 UTC

BECMG 2300/2302 21006KT

Becoming

Becoming Conditions expected by Wed, Oct 23, 2019 @ 02:00 UTC

Wind
  • 210° at 6 KTS
Cloud Levels
  • No significant clouds

Oct-23@
06:00 UTC

Oct-23 @ 06:00 UTC

Oct-23@
12:00 UTC

Oct-23 @ 12:00 UTC

TEMPO 2306/2312 15004KT

Temporary

Temporary Changes expected for less than half the time period

Wind
  • 150° at 4 KTS

Oct-23@
15:00 UTC

Oct-23 @ 15:00 UTC

Oct-24@
00:00 UTC

Oct-24 @ 00:00 UTC

BECMG 2315/2317 22012KT

Becoming

Becoming Conditions expected by Wed, Oct 23, 2019 @ 17:00 UTC

Wind
  • 220° at 12 KTS
Cloud Levels
  • No significant clouds